Time;durP1;ratioP1;P1;durP2;ratioP2;P2;SDS_P1;SDS_P2;PMS_P1;PMS_P2;Temp;Humidity;BMP_temperature;BMP_pressure;BME280_temperature;BME280_humidity;BME280_pressure;Samples;Min_cycle;Max_cycle;Signal;HPM_P1;HPM_P2
2024/03/02 00:02:54;;;;;;;;;;;;;;;12.51;70.97;98352.12;68330;1281;1014548;-70
2024/03/02 00:05:56;;;;;;;;;;;;;;;12.47;71.15;98349.77;68328;1281;1015810;-69
2024/03/02 00:09:00;;;;;;;;;;;;;;;12.42;71.70;98350.73;68347;1281;1015987;-70
2024/03/02 00:12:02;;;;;;;;;;;;;;;12.34;72.32;98351.48;68327;1280;1015334;-70
2024/03/02 00:15:05;;;;;;;;;;;;;;;12.29;72.63;98353.60;68326;1281;1015915;-70
2024/03/02 00:18:08;;;;;;;;;;;;;;;12.35;72.46;98355.60;68353;1281;1015685;-70
2024/03/02 00:21:10;;;;;;;;;;;;;;;12.50;71.81;98355.19;68344;1281;1016593;-70
2024/03/02 00:24:14;;;;;;;;;;;;;;;12.51;71.94;98354.60;68358;1281;1015421;-70
2024/03/02 00:27:17;;;;;;;;;;;;;;;12.45;72.17;98358.91;68343;1281;1016029;-70
2024/03/02 00:30:19;;;;;;;;;;;;;;;12.49;72.27;98360.17;68335;1281;1016112;-70
2024/03/02 00:33:22;;;;;;;;;;;;;;;12.40;72.49;98356.95;68354;1281;1014609;-70
2024/03/02 00:36:24;;;;;;;;;;;;;;;12.33;73.01;98359.25;68331;1281;1016589;-71
2024/03/02 00:39:27;;;;;;;;;;;;;;;12.39;72.95;98356.20;68389;1279;1015407;-70
2024/03/02 00:42:30;;;;;;;;;;;;;;;12.44;72.68;98351.08;68410;1279;1015294;-67
2024/03/02 00:45:32;;;;;;;;;;;;;;;12.46;72.72;98351.92;68426;1279;1014938;-70
2024/03/02 00:48:35;;;;;;;;;;;;;;;12.49;72.51;98343.33;68421;1279;1015913;-70
2024/03/02 00:51:38;;;;;;;;;;;;;;;12.46;72.70;98352.66;68434;1279;1015472;-70
2024/03/02 00:54:40;;;;;;;;;;;;;;;12.55;72.46;98356.16;68410;1279;1016168;-70
2024/03/02 00:57:44;;;;;;;;;;;;;;;12.68;71.68;98357.48;68423;1279;1016116;-70
2024/03/02 01:00:47;;;;;;;;;;;;;;;12.82;70.99;98358.35;68408;1279;1014348;-70
2024/03/02 01:03:49;;;;;;;;;;;;;;;12.80;71.21;98355.84;68416;1279;1016047;-70
2024/03/02 01:06:52;;;;;;;;;;;;;;;12.75;71.16;98357.80;68410;1279;1015910;-70
2024/03/02 01:09:54;;;;;;;;;;;;;;;12.74;71.36;98356.45;68411;1279;1016003;-71
2024/03/02 01:12:57;;;;;;;;;;;;;;;12.80;71.33;98354.23;68409;1279;1015482;-70
2024/03/02 01:16:00;;;;;;;;;;;;;;;12.78;71.48;98351.10;68425;1279;1015899;-70
2024/03/02 01:19:02;;;;;;;;;;;;;;;12.72;71.66;98355.59;68422;1279;1015310;-70
2024/03/02 01:22:05;;;;;;;;;;;;;;;12.56;72.50;98351.38;68421;1279;1015174;-70
2024/03/02 01:25:08;;;;;;;;;;;;;;;12.57;72.46;98348.34;68426;1279;1015366;-70
2024/03/02 01:28:10;;;;;;;;;;;;;;;12.57;72.18;98344.11;68420;1279;1015336;-61
2024/03/02 01:31:13;;;;;;;;;;;;;;;12.56;72.27;98339.67;68413;1279;1015489;-70
2024/03/02 01:34:16;;;;;;;;;;;;;;;12.59;72.00;98336.45;68422;1279;1016112;-70
2024/03/02 01:37:19;;;;;;;;;;;;;;;12.57;71.99;98330.11;68423;1279;1016015;-71
2024/03/02 01:40:26;;;;;;;;;;;;;;;12.62;71.56;98324.25;68405;1279;1016000;-71
2024/03/02 01:43:28;;;;;;;;;;;;;;;12.68;70.96;98319.27;68409;1279;1015495;-71
2024/03/02 01:46:31;;;;;;;;;;;;;;;12.73;70.81;98317.27;68415;1279;1015882;-71
2024/03/02 01:49:34;;;;;;;;;;;;;;;12.65;71.18;98317.17;68418;1279;1015927;-70
2024/03/02 01:52:36;;;;;;;;;;;;;;;12.65;71.30;98316.54;68400;1279;1016369;-70
2024/03/02 01:55:39;;;;;;;;;;;;;;;12.56;71.88;98322.83;68405;1279;1015294;-71
2024/03/02 01:58:42;;;;;;;;;;;;;;;12.54;71.75;98322.95;68424;1279;1016126;-71
2024/03/02 02:01:45;;;;;;;;;;;;;;;12.48;72.22;98322.73;68407;1279;1015861;-71
2024/03/02 02:04:47;;;;;;;;;;;;;;;12.52;72.09;98319.39;68407;1279;1014659;-70
2024/03/02 02:07:50;;;;;;;;;;;;;;;12.56;71.81;98316.87;68411;1279;1016092;-70
2024/03/02 02:10:52;;;;;;;;;;;;;;;12.60;71.49;98311.64;68403;1279;1015263;-71
2024/03/02 02:13:56;;;;;;;;;;;;;;;12.64;71.35;98314.27;68399;1279;1015594;-71
2024/03/02 02:16:59;;;;;;;;;;;;;;;12.55;71.91;98309.20;68414;1279;1015723;-71
2024/03/02 02:20:01;;;;;;;;;;;;;;;12.62;71.61;98306.71;68408;1279;1015311;-59
2024/03/02 02:23:05;;;;;;;;;;;;;;;12.64;70.97;98304.96;68401;1279;1015287;-70
2024/03/02 02:26:08;;;;;;;;;;;;;;;12.64;70.84;98302.31;68415;1279;1014535;-71
2024/03/02 02:29:11;;;;;;;;;;;;;;;12.53;71.10;98300.27;68396;1279;1015919;-71
2024/03/02 02:32:14;;;;;;;;;;;;;;;12.55;71.14;98298.69;68401;1279;1015613;-70
2024/03/02 02:35:16;;;;;;;;;;;;;;;12.57;71.12;98297.63;68401;1279;1015530;-70
2024/03/02 02:38:19;;;;;;;;;;;;;;;12.62;71.11;98296.17;68415;1279;1016255;-70
2024/03/02 02:41:22;;;;;;;;;;;;;;;12.66;70.68;98292.86;68425;1279;1016200;-71
2024/03/02 02:44:25;;;;;;;;;;;;;;;12.63;70.54;98289.42;68413;1279;1016020;-71
2024/03/02 02:47:29;;;;;;;;;;;;;;;12.66;70.37;98291.35;68411;1279;1015321;-71
2024/03/02 02:50:31;;;;;;;;;;;;;;;12.62;70.43;98290.98;68413;1279;1015890;-70
2024/03/02 02:53:35;;;;;;;;;;;;;;;12.60;70.50;98290.25;68403;1279;1015530;-70
2024/03/02 02:56:37;;;;;;;;;;;;;;;12.61;70.23;98290.67;68392;1279;1015278;-70
2024/03/02 02:59:40;;;;;;;;;;;;;;;12.54;70.71;98294.85;68391;1279;1015814;-70
2024/03/02 03:02:43;;;;;;;;;;;;;;;12.53;70.99;98292.88;68420;1279;1015633;-64
2024/03/02 03:05:45;;;;;;;;;;;;;;;12.53;70.29;98291.78;68402;1279;1016221;-70
2024/03/02 03:08:48;;;;;;;;;;;;;;;12.61;69.85;98286.14;68408;1279;1016239;-70
2024/03/02 03:11:51;;;;;;;;;;;;;;;12.52;70.07;98285.06;68400;1279;1015849;-71
2024/03/02 03:14:54;;;;;;;;;;;;;;;12.46;70.55;98279.92;68405;1279;1014772;-71
2024/03/02 03:17:56;;;;;;;;;;;;;;;12.42;70.70;98277.76;68411;1279;1015865;-71
2024/03/02 03:21:00;;;;;;;;;;;;;;;12.33;71.10;98275.48;68429;1279;1015476;-71
2024/03/02 03:24:02;;;;;;;;;;;;;;;12.31;71.23;98276.46;68400;1279;1015108;-71
2024/03/02 03:27:05;;;;;;;;;;;;;;;12.40;70.58;98272.33;68422;1279;1015225;-70
2024/03/02 03:30:07;;;;;;;;;;;;;;;12.45;70.27;98266.11;68391;1279;1015678;-70
2024/03/02 03:33:10;;;;;;;;;;;;;;;12.30;70.73;98272.39;68389;1279;1015848;-71
2024/03/02 03:36:13;;;;;;;;;;;;;;;12.29;70.87;98272.08;68408;1279;1016187;-71
2024/03/02 03:39:15;;;;;;;;;;;;;;;12.37;70.69;98271.30;68398;1279;1016011;-71
2024/03/02 03:42:18;;;;;;;;;;;;;;;12.33;70.45;98272.98;68386;1279;1015680;-70
2024/03/02 03:45:20;;;;;;;;;;;;;;;12.25;70.78;98273.80;68401;1279;1015927;-70
2024/03/02 03:48:23;;;;;;;;;;;;;;;12.23;70.82;98273.77;68407;1279;1014792;-71
2024/03/02 03:51:26;;;;;;;;;;;;;;;12.21;70.73;98272.32;68407;1279;1015969;-71
2024/03/02 03:54:28;;;;;;;;;;;;;;;12.11;71.01;98275.02;68393;1279;1016148;-69
2024/03/02 03:57:31;;;;;;;;;;;;;;;12.06;71.30;98274.34;68398;1279;1015528;-70
2024/03/02 04:00:34;;;;;;;;;;;;;;;12.07;70.99;98277.62;68408;1279;1015286;-70
2024/03/02 04:03:36;;;;;;;;;;;;;;;12.01;71.07;98280.89;68398;1279;1016085;-71
2024/03/02 04:06:39;;;;;;;;;;;;;;;12.02;71.53;98278.00;68413;1279;1015813;-70
2024/03/02 04:09:41;;;;;;;;;;;;;;;11.96;71.85;98281.77;68402;1279;1016342;-69
2024/03/02 04:12:44;;;;;;;;;;;;;;;11.89;72.20;98272.80;68401;1279;1016002;-71
2024/03/02 04:15:47;;;;;;;;;;;;;;;11.84;72.41;98267.02;68397;1279;1015621;-71
2024/03/02 04:18:49;;;;;;;;;;;;;;;11.81;72.39;98260.23;68390;1279;1016225;-71
2024/03/02 04:21:52;;;;;;;;;;;;;;;11.77;72.68;98262.41;68393;1279;1015695;-71
2024/03/02 04:24:54;;;;;;;;;;;;;;;11.84;72.53;98264.04;68404;1279;1014957;-71
2024/03/02 04:27:58;;;;;;;;;;;;;;;11.82;72.49;98264.94;68401;1280;1015351;-63
2024/03/02 04:31:00;;;;;;;;;;;;;;;11.85;72.58;98265.21;68395;1279;1015630;-70
2024/03/02 04:34:03;;;;;;;;;;;;;;;11.83;73.05;98264.67;68389;1279;1015705;-71
2024/03/02 04:37:05;;;;;;;;;;;;;;;11.90;72.67;98262.59;68396;1279;1015143;-70
2024/03/02 04:40:08;;;;;;;;;;;;;;;11.86;72.59;98262.70;68399;1279;1015354;-70
2024/03/02 04:43:15;;;;;;;;;;;;;;;11.87;72.61;98262.46;68410;1279;1015757;-70
2024/03/02 04:46:18;;;;;;;;;;;;;;;11.93;72.57;98262.88;68406;1279;1016011;-70
2024/03/02 04:49:21;;;;;;;;;;;;;;;11.99;71.98;98264.73;68387;1279;1015600;-70
2024/03/02 04:52:24;;;;;;;;;;;;;;;12.00;71.51;98264.42;68404;1279;1015518;-70
2024/03/02 04:55:52;;;;;;;;;;;;;;;11.89;71.37;98265.44;68394;1279;1015967;-71
2024/03/02 04:58:53;;;;;;;;;;;;;;;11.86;71.61;98268.09;68416;1279;1015506;-65
2024/03/02 05:01:56;;;;;;;;;;;;;;;11.87;71.40;98270.88;68397;1279;1016129;-71
2024/03/02 05:04:58;;;;;;;;;;;;;;;11.83;71.44;98271.52;68403;1279;1015549;-70
2024/03/02 05:08:01;;;;;;;;;;;;;;;11.77;71.61;98281.90;68379;1279;1014357;-71
2024/03/02 05:14:20;;;;;;;;;;;;;;;11.80;71.82;98289.39;68388;1279;1015987;-71
2024/03/02 05:17:22;;;;;;;;;;;;;;;11.81;71.87;98293.38;68408;1279;1016206;-71
2024/03/02 05:20:25;;;;;;;;;;;;;;;11.84;71.90;98292.80;68400;1279;1015950;-71
2024/03/02 05:23:27;;;;;;;;;;;;;;;11.83;72.23;98299.38;68391;1279;1015691;-70
2024/03/02 05:26:30;;;;;;;;;;;;;;;11.97;71.76;98303.75;68395;1279;1014428;-71
2024/03/02 05:29:32;;;;;;;;;;;;;;;12.02;71.61;98299.92;68387;1279;1015907;-70
2024/03/02 05:32:35;;;;;;;;;;;;;;;12.11;71.22;98300.96;68397;1279;1015537;-69
2024/03/02 05:35:37;;;;;;;;;;;;;;;12.21;71.09;98298.67;68379;1279;1015904;-70
2024/03/02 05:38:40;;;;;;;;;;;;;;;12.13;70.98;98295.37;68407;1279;1015659;-71
2024/03/02 05:41:42;;;;;;;;;;;;;;;12.08;71.63;98299.80;68392;1279;1016168;-71
2024/03/02 05:44:45;;;;;;;;;;;;;;;12.02;71.78;98307.09;68395;1279;1015231;-70
2024/03/02 05:47:47;;;;;;;;;;;;;;;11.95;72.22;98307.24;68391;1279;1015895;-70
2024/03/02 05:50:50;;;;;;;;;;;;;;;11.89;72.69;98312.37;68386;1279;1015832;-70
2024/03/02 05:53:53;;;;;;;;;;;;;;;11.92;72.71;98316.91;68397;1279;1015470;-71
2024/03/02 05:56:56;;;;;;;;;;;;;;;11.92;73.01;98316.73;68383;1279;1015822;-70
2024/03/02 05:59:59;;;;;;;;;;;;;;;11.99;72.66;98323.08;68395;1279;1016058;-70
2024/03/02 06:03:02;;;;;;;;;;;;;;;12.11;72.58;98323.05;68376;1279;1015346;-70
2024/03/02 06:06:05;;;;;;;;;;;;;;;12.19;72.34;98324.23;68407;1279;1015506;-71
2024/03/02 06:09:08;;;;;;;;;;;;;;;12.19;72.67;98325.41;68410;1279;1014519;-70
2024/03/02 06:12:10;;;;;;;;;;;;;;;12.31;72.55;98326.30;68392;1279;1015826;-71
2024/03/02 06:15:13;;;;;;;;;;;;;;;12.41;72.32;98325.02;68393;1279;1016394;-70
2024/03/02 06:18:16;;;;;;;;;;;;;;;12.43;72.53;98332.88;68405;1279;1015379;-70
2024/03/02 06:21:19;;;;;;;;;;;;;;;12.46;72.37;98333.70;68403;1279;1015628;-71
2024/03/02 06:24:21;;;;;;;;;;;;;;;12.57;72.17;98342.34;68406;1279;1015807;-71
2024/03/02 06:27:24;;;;;;;;;;;;;;;12.67;71.91;98342.64;68406;1279;1016304;-71
2024/03/02 06:30:26;;;;;;;;;;;;;;;12.76;72.03;98336.14;68399;1279;1015564;-70
2024/03/02 06:33:29;;;;;;;;;;;;;;;12.78;71.86;98346.68;68398;1279;1015803;-70
2024/03/02 06:36:32;;;;;;;;;;;;;;;12.76;71.78;98347.56;68404;1279;1014823;-70
2024/03/02 06:39:36;;;;;;;;;;;;;;;12.75;72.17;98346.37;68406;1279;1015762;-71
2024/03/02 06:42:39;;;;;;;;;;;;;;;12.69;72.09;98349.02;68392;1279;1016104;-71
2024/03/02 06:45:41;;;;;;;;;;;;;;;12.75;71.86;98339.08;68393;1279;1015278;-71
2024/03/02 06:48:44;;;;;;;;;;;;;;;12.68;71.93;98326.63;68399;1279;1015450;-70
2024/03/02 06:51:47;;;;;;;;;;;;;;;12.65;72.75;98332.77;68392;1279;1015149;-70
2024/03/02 06:54:49;;;;;;;;;;;;;;;12.84;72.97;98340.98;68396;1279;1015990;-70
2024/03/02 06:57:52;;;;;;;;;;;;;;;13.06;71.90;98348.54;68409;1279;1015722;-71
2024/03/02 07:00:54;;;;;;;;;;;;;;;13.17;71.10;98347.02;68393;1279;1015882;-71
2024/03/02 07:03:57;;;;;;;;;;;;;;;13.22;70.90;98347.45;68412;1279;1015923;-71
2024/03/02 07:06:59;;;;;;;;;;;;;;;13.22;70.96;98344.36;68396;1279;1016080;-70
2024/03/02 07:10:02;;;;;;;;;;;;;;;13.20;70.99;98355.55;68399;1279;1015957;-71
2024/03/02 07:13:05;;;;;;;;;;;;;;;13.32;70.76;98351.77;68396;1279;1016107;-70
2024/03/02 07:16:27;;;;;;;;;;;;;;;13.28;70.27;98354.55;68394;1279;1015782;-71
2024/03/02 07:19:30;;;;;;;;;;;;;;;13.19;71.10;98354.04;68391;1279;1015819;-71
2024/03/02 07:22:33;;;;;;;;;;;;;;;13.27;71.16;98349.57;68379;1279;1015360;-70
2024/03/02 07:25:35;;;;;;;;;;;;;;;13.33;70.88;98347.89;68398;1279;1015755;-71
2024/03/02 07:28:38;;;;;;;;;;;;;;;13.45;71.04;98362.06;68402;1279;1016116;-70
2024/03/02 07:31:40;;;;;;;;;;;;;;;13.54;70.78;98362.23;68405;1279;1015064;-70
2024/03/02 07:34:43;;;;;;;;;;;;;;;13.49;70.16;98353.24;68411;1279;1014994;-70
2024/03/02 07:37:46;;;;;;;;;;;;;;;13.55;70.59;98358.59;68393;1279;1016250;-71
2024/03/02 07:40:50;;;;;;;;;;;;;;;13.67;70.64;98365.02;68402;1279;1015434;-71
2024/03/02 07:43:53;;;;;;;;;;;;;;;13.76;70.39;98361.48;68412;1279;1015429;-70
2024/03/02 07:46:55;;;;;;;;;;;;;;;13.91;70.18;98363.22;68409;1279;1016034;-71
2024/03/02 07:49:58;;;;;;;;;;;;;;;14.09;70.12;98361.57;68402;1279;1014717;-69
2024/03/02 07:53:00;;;;;;;;;;;;;;;14.23;69.67;98369.55;68415;1279;1015757;-70
2024/03/02 07:56:03;;;;;;;;;;;;;;;14.44;69.03;98370.18;68405;1279;1015913;-70
2024/03/02 07:59:05;;;;;;;;;;;;;;;14.56;67.82;98371.75;68387;1279;1016018;-70
2024/03/02 08:02:08;;;;;;;;;;;;;;;14.57;67.83;98372.20;68411;1279;1015590;-70
2024/03/02 08:05:10;;;;;;;;;;;;;;;14.48;67.96;98377.68;65963;1279;5372703;-70
2024/03/02 08:08:13;;;;;;;;;;;;;;;14.49;68.28;98379.40;68388;1279;1015270;-70
2024/03/02 08:11:16;;;;;;;;;;;;;;;14.56;67.78;98375.80;68413;1279;1015825;-70
2024/03/02 08:14:18;;;;;;;;;;;;;;;14.64;67.51;98376.61;68404;1279;1015581;-70
2024/03/02 08:17:21;;;;;;;;;;;;;;;14.60;66.67;98379.66;68406;1279;1015772;-71
2024/03/02 08:20:23;;;;;;;;;;;;;;;14.50;66.80;98384.55;68413;1279;1014588;-70
2024/03/02 08:23:27;;;;;;;;;;;;;;;14.66;66.53;98385.35;68401;1279;1015288;-70
2024/03/02 08:26:31;;;;;;;;;;;;;;;14.72;66.84;98386.59;68411;1279;1015336;-70
2024/03/02 08:29:33;;;;;;;;;;;;;;;14.88;66.26;98391.40;68425;1279;1016246;-71
2024/03/02 08:32:36;;;;;;;;;;;;;;;14.86;66.34;98390.20;68432;1279;1014255;-71
2024/03/02 08:35:38;;;;;;;;;;;;;;;14.86;66.75;98390.19;68419;1279;1015497;-70
2024/03/02 08:38:49;;;;;;;;;;;;;;;15.12;65.82;98390.23;68356;1279;1016440;-70
2024/03/02 08:41:53;;;;;;;;;;;;;;;15.13;65.28;98385.82;68430;1279;1015923;-70
2024/03/02 08:44:55;;;;;;;;;;;;;;;15.26;64.71;98385.91;68403;1279;1015915;-71
2024/03/02 08:47:58;;;;;;;;;;;;;;;15.04;65.03;98382.46;68427;1279;1015491;-71
2024/03/02 08:51:00;;;;;;;;;;;;;;;14.98;65.30;98388.77;68416;1279;1015174;-71
2024/03/02 08:54:03;;;;;;;;;;;;;;;15.02;65.70;98387.73;68414;1279;1015469;-70
2024/03/02 08:57:07;;;;;;;;;;;;;;;15.10;65.40;98389.52;68389;1279;1015865;-70
2024/03/02 09:00:09;;;;;;;;;;;;;;;15.17;65.80;98388.23;68422;1279;1014882;-62
2024/03/02 09:03:12;;;;;;;;;;;;;;;15.29;65.49;98388.63;68419;1279;1015596;-70
2024/03/02 09:06:16;;;;;;;;;;;;;;;15.39;64.78;98384.73;68412;1279;1015656;-71
2024/03/02 09:09:19;;;;;;;;;;;;;;;15.64;63.69;98388.41;68427;1279;1016057;-70
2024/03/02 09:12:22;;;;;;;;;;;;;;;15.59;63.81;98387.70;68422;1279;1015599;-70
2024/03/02 09:15:25;;;;;;;;;;;;;;;15.58;64.28;98389.04;68429;1279;1016118;-70
2024/03/02 09:18:27;;;;;;;;;;;;;;;15.62;64.20;98386.60;68421;1279;1015948;-70
2024/03/02 09:21:30;;;;;;;;;;;;;;;15.54;64.29;98382.16;68417;1279;1015636;-70
2024/03/02 09:24:33;;;;;;;;;;;;;;;15.52;64.20;98385.48;68420;1279;1015478;-70
2024/03/02 09:27:35;;;;;;;;;;;;;;;15.56;64.13;98386.48;68420;1279;1015664;-70
2024/03/02 09:30:38;;;;;;;;;;;;;;;15.54;63.96;98393.81;68405;1279;1015760;-70
2024/03/02 09:33:40;;;;;;;;;;;;;;;15.57;64.31;98390.50;68409;1279;1015462;-70
2024/03/02 09:36:43;;;;;;;;;;;;;;;15.61;64.04;98392.68;68428;1279;1015428;-71
2024/03/02 09:39:46;;;;;;;;;;;;;;;15.80;64.07;98396.70;68391;1279;1015337;-70
2024/03/02 09:42:52;;;;;;;;;;;;;;;15.76;62.64;98401.07;68417;1279;1015858;-70
2024/03/02 09:45:55;;;;;;;;;;;;;;;15.68;62.21;98394.89;68430;1279;1016112;-70
2024/03/02 09:48:57;;;;;;;;;;;;;;;15.66;63.17;98398.45;68435;1279;1015186;-70
2024/03/02 09:52:00;;;;;;;;;;;;;;;15.64;62.82;98401.59;68431;1279;1015995;-70
2024/03/02 09:55:02;;;;;;;;;;;;;;;15.70;63.14;98402.98;68411;1279;1015937;-70
2024/03/02 09:58:05;;;;;;;;;;;;;;;15.73;63.13;98407.08;68409;1279;1015798;-70
2024/03/02 10:01:09;;;;;;;;;;;;;;;15.64;62.43;98406.86;68410;1279;1015008;-70
2024/03/02 10:04:13;;;;;;;;;;;;;;;15.56;62.25;98408.95;68431;1279;1015816;-70
2024/03/02 10:07:15;;;;;;;;;;;;;;;15.58;62.54;98407.57;68415;1279;1015932;-70
2024/03/02 10:10:18;;;;;;;;;;;;;;;15.58;63.25;98410.16;68423;1279;1015150;-70
2024/03/02 10:13:20;;;;;;;;;;;;;;;15.68;62.93;98405.61;68430;1279;1015950;-70
2024/03/02 10:16:23;;;;;;;;;;;;;;;15.72;61.96;98403.52;68414;1279;1015396;-70
2024/03/02 10:19:26;;;;;;;;;;;;;;;15.73;62.37;98404.00;68441;1279;1015278;-70
2024/03/02 10:22:29;;;;;;;;;;;;;;;15.91;62.27;98402.00;68442;1279;1015594;-70
2024/03/02 10:25:32;;;;;;;;;;;;;;;16.04;62.01;98404.25;68426;1279;1015583;-70
2024/03/02 10:28:34;;;;;;;;;;;;;;;16.03;61.66;98409.58;68421;1279;1015594;-70
2024/03/02 10:31:37;;;;;;;;;;;;;;;16.06;61.94;98403.86;68434;1279;1015883;-70
2024/03/02 10:34:39;;;;;;;;;;;;;;;16.11;61.06;98404.69;68418;1279;1014262;-70
2024/03/02 10:37:42;;;;;;;;;;;;;;;15.94;61.05;98403.89;68443;1279;1016034;-70
2024/03/02 10:40:45;;;;;;;;;;;;;;;15.94;61.51;98406.65;68358;1280;1014931;-70
2024/03/02 10:43:48;;;;;;;;;;;;;;;15.99;61.28;98401.51;68362;1281;1015479;-69
2024/03/02 10:46:51;;;;;;;;;;;;;;;15.99;61.91;98403.14;68337;1281;1016150;-70
2024/03/02 10:49:53;;;;;;;;;;;;;;;16.06;62.01;98402.96;68336;1281;1015400;-70
2024/03/02 10:52:56;;;;;;;;;;;;;;;16.22;61.48;98401.02;68352;1281;1015296;-70
2024/03/02 10:55:59;;;;;;;;;;;;;;;16.40;61.34;98400.80;68354;1281;1016335;-70
2024/03/02 10:59:02;;;;;;;;;;;;;;;16.51;60.68;98400.00;68344;1281;1015930;-70
2024/03/02 11:02:06;;;;;;;;;;;;;;;16.51;60.64;98397.50;68339;1281;1015460;-70
2024/03/02 11:05:09;;;;;;;;;;;;;;;16.62;60.75;98392.10;68359;1280;1016198;-70
2024/03/02 11:08:11;;;;;;;;;;;;;;;16.76;60.94;98389.73;68344;1281;1015241;-70
2024/03/02 11:11:14;;;;;;;;;;;;;;;17.01;60.13;98389.72;68359;1281;1015321;-70
2024/03/02 11:14:17;;;;;;;;;;;;;;;17.03;60.48;98383.71;68357;1281;1015280;-70
2024/03/02 11:17:19;;;;;;;;;;;;;;;17.15;59.72;98378.10;68348;1281;1015765;-69
2024/03/02 11:20:22;;;;;;;;;;;;;;;17.32;59.17;98376.81;68337;1281;1016003;-69
2024/03/02 11:23:24;;;;;;;;;;;;;;;17.36;59.05;98373.68;68342;1281;1015951;-70
2024/03/02 11:26:28;;;;;;;;;;;;;;;17.31;58.92;98370.93;68349;1281;1015757;-70
2024/03/02 11:29:31;;;;;;;;;;;;;;;17.37;58.23;98373.04;68344;1281;1015671;-66
2024/03/02 11:32:34;;;;;;;;;;;;;;;17.39;58.96;98369.70;68351;1281;1015488;-70
2024/03/02 11:35:37;;;;;;;;;;;;;;;17.45;58.65;98371.05;68345;1281;1015339;-70
2024/03/02 11:38:39;;;;;;;;;;;;;;;17.59;58.56;98369.81;68372;1279;1016145;-70
2024/03/02 11:41:42;;;;;;;;;;;;;;;17.65;58.20;98366.68;68424;1279;1015769;-70
2024/03/02 11:44:45;;;;;;;;;;;;;;;17.77;57.61;98370.99;68444;1279;1015239;-69
2024/03/02 11:47:47;;;;;;;;;;;;;;;17.85;57.73;98366.95;68426;1279;1015709;-70
2024/03/02 11:50:50;;;;;;;;;;;;;;;17.92;57.21;98367.02;68430;1279;1015584;-70
2024/03/02 11:53:52;;;;;;;;;;;;;;;18.07;56.88;98366.04;68427;1279;1015720;-70
2024/03/02 11:56:55;;;;;;;;;;;;;;;17.92;56.51;98367.21;68434;1279;1015357;-70
2024/03/02 11:59:59;;;;;;;;;;;;;;;17.77;56.18;98364.80;68438;1279;1015166;-70
2024/03/02 12:03:01;;;;;;;;;;;;;;;17.74;57.05;98362.39;68429;1279;1015429;-70
2024/03/02 12:06:04;;;;;;;;;;;;;;;17.84;56.72;98361.76;68452;1280;1016002;-70
2024/03/02 12:09:11;;;;;;;;;;;;;;;17.75;56.59;98360.94;68430;1279;1014916;-70
2024/03/02 12:12:17;;;;;;;;;;;;;;;17.81;55.76;98360.79;68447;1279;1016162;-70
2024/03/02 12:15:20;;;;;;;;;;;;;;;17.81;55.73;98360.96;68416;1279;1015507;-70
2024/03/02 12:18:22;;;;;;;;;;;;;;;17.87;56.05;98356.94;68451;1279;1015750;-70
2024/03/02 12:21:25;;;;;;;;;;;;;;;18.03;56.24;98356.41;68438;1279;1015947;-70
2024/03/02 12:24:28;;;;;;;;;;;;;;;18.13;55.57;98357.86;68423;1279;1016033;-69
2024/03/02 12:27:31;;;;;;;;;;;;;;;18.08;56.12;98356.09;68434;1279;1015681;-70
2024/03/02 12:30:33;;;;;;;;;;;;;;;18.34;55.11;98355.80;68424;1279;1015514;-70
2024/03/02 12:33:36;;;;;;;;;;;;;;;18.37;54.13;98358.16;68435;1279;1015089;-69
2024/03/02 12:36:39;;;;;;;;;;;;;;;18.44;53.82;98355.84;68427;1279;1015842;-70
2024/03/02 12:39:41;;;;;;;;;;;;;;;18.50;54.10;98353.83;68423;1279;1015475;-70
2024/03/02 12:42:44;;;;;;;;;;;;;;;18.49;53.69;98357.10;68432;1279;1015470;-70
2024/03/02 12:45:46;;;;;;;;;;;;;;;18.58;53.32;98351.29;68433;1279;1015935;-70
2024/03/02 12:48:49;;;;;;;;;;;;;;;18.56;54.08;98348.68;68420;1279;1015216;-70
2024/03/02 12:51:53;;;;;;;;;;;;;;;18.57;53.55;98345.39;68440;1279;1015581;-70
2024/03/02 12:54:58;;;;;;;;;;;;;;;18.79;53.18;98345.23;68434;1279;1015721;-70
2024/03/02 12:58:02;;;;;;;;;;;;;;;18.92;52.75;98341.77;68413;1280;1016637;-69
2024/03/02 13:01:05;;;;;;;;;;;;;;;19.07;52.16;98339.72;68443;1279;1014552;-70
2024/03/02 13:04:07;;;;;;;;;;;;;;;19.22;51.57;98342.99;68429;1279;1015251;-70
2024/03/02 13:07:13;;;;;;;;;;;;;;;19.39;51.21;98336.73;68436;1279;1015831;-70
2024/03/02 13:10:16;;;;;;;;;;;;;;;19.52;50.84;98336.31;68431;1280;1015550;-70
2024/03/02 13:13:19;;;;;;;;;;;;;;;19.57;51.00;98334.09;68447;1280;1015923;-70
2024/03/02 13:16:22;;;;;;;;;;;;;;;19.69;50.19;98339.38;68437;1279;1015264;-70
2024/03/02 13:19:25;;;;;;;;;;;;;;;19.54;50.02;98337.98;68429;1279;1015252;-70
2024/03/02 13:22:27;;;;;;;;;;;;;;;19.48;50.10;98338.29;68441;1279;1015277;-69
2024/03/02 13:25:31;;;;;;;;;;;;;;;19.57;50.20;98339.24;68459;1279;1015571;-70
2024/03/02 13:28:33;;;;;;;;;;;;;;;19.55;49.61;98336.66;68445;1279;1015740;-70
2024/03/02 13:31:36;;;;;;;;;;;;;;;19.52;49.56;98333.69;68435;1279;1016144;-70
2024/03/02 13:34:39;;;;;;;;;;;;;;;19.44;49.82;98339.20;68428;1279;1015832;-70
2024/03/02 13:37:41;;;;;;;;;;;;;;;19.34;49.63;98337.80;68439;1279;1015470;-70
2024/03/02 13:40:44;;;;;;;;;;;;;;;19.13;49.87;98338.91;68424;1280;1016011;-69
2024/03/02 13:43:46;;;;;;;;;;;;;;;19.03;50.49;98334.43;68443;1280;1015711;-70
2024/03/02 13:46:49;;;;;;;;;;;;;;;19.08;50.62;98336.80;68445;1279;1015937;-70
2024/03/02 13:49:51;;;;;;;;;;;;;;;19.11;50.62;98339.91;68435;1279;1015251;-70
2024/03/02 13:52:54;;;;;;;;;;;;;;;19.14;49.93;98341.44;68429;1279;1015747;-69
2024/03/02 13:55:57;;;;;;;;;;;;;;;19.11;49.96;98336.98;68420;1280;1015483;-70
2024/03/02 13:58:59;;;;;;;;;;;;;;;19.06;50.27;98341.50;68436;1280;1016181;-69
2024/03/02 14:02:03;;;;;;;;;;;;;;;19.08;50.40;98337.86;68443;1279;1014453;-70
2024/03/02 14:05:07;;;;;;;;;;;;;;;19.11;50.17;98341.05;68425;1279;1016139;-69
2024/03/02 14:08:10;;;;;;;;;;;;;;;19.08;50.10;98340.66;68437;1279;1015815;-70
2024/03/02 14:11:14;;;;;;;;;;;;;;;19.09;50.22;98340.25;68448;1280;1014341;-70
2024/03/02 14:14:17;;;;;;;;;;;;;;;19.06;50.17;98336.46;68446;1279;1014639;-70
2024/03/02 14:17:20;;;;;;;;;;;;;;;19.03;50.21;98331.98;68428;1280;1014839;-70
2024/03/02 14:20:23;;;;;;;;;;;;;;;19.00;50.19;98336.54;68434;1279;1014424;-69
2024/03/02 14:23:28;;;;;;;;;;;;;;;19.08;50.14;98335.04;68429;1279;1016192;-70
2024/03/02 14:26:30;;;;;;;;;;;;;;;19.12;50.26;98334.25;68429;1280;1015924;-70
2024/03/02 14:29:36;;;;;;;;;;;;;;;19.11;50.43;98336.69;68430;1279;1015483;-69
2024/03/02 14:32:38;;;;;;;;;;;;;;;19.15;50.42;98337.27;68439;1280;1016047;-69
2024/03/02 14:35:41;;;;;;;;;;;;;;;19.07;50.59;98340.05;68430;1280;1015621;-70
2024/03/02 14:38:43;;;;;;;;;;;;;;;19.01;50.76;98341.39;68435;1280;1015678;-70
2024/03/02 14:41:46;;;;;;;;;;;;;;;19.16;50.82;98342.11;68427;1280;1015537;-70
2024/03/02 14:44:49;;;;;;;;;;;;;;;19.24;50.31;98341.31;68425;1279;1016194;-69
2024/03/02 14:47:52;;;;;;;;;;;;;;;19.12;50.69;98339.61;68433;1279;1015556;-70
2024/03/02 14:50:55;;;;;;;;;;;;;;;19.05;51.13;98335.69;68444;1280;1014398;-70
2024/03/02 14:53:57;;;;;;;;;;;;;;;19.06;50.77;98337.65;68443;1279;1016203;-70
2024/03/02 14:57:00;;;;;;;;;;;;;;;18.96;51.00;98333.23;68449;1279;1014844;-69
2024/03/02 15:00:03;;;;;;;;;;;;;;;18.98;50.74;98333.86;68423;1280;1016083;-69
2024/03/02 15:03:07;;;;;;;;;;;;;;;18.83;50.75;98340.56;68421;1280;1015138;-69
2024/03/02 15:06:10;;;;;;;;;;;;;;;18.69;51.33;98333.32;68431;1280;1015540;-70
2024/03/02 15:09:12;;;;;;;;;;;;;;;18.60;51.28;98334.52;68433;1279;1016155;-70
2024/03/02 15:12:16;;;;;;;;;;;;;;;18.43;51.43;98331.20;68440;1279;1014656;-70
2024/03/02 15:15:19;;;;;;;;;;;;;;;18.21;51.79;98334.94;68434;1280;1015358;-70
2024/03/02 15:18:21;;;;;;;;;;;;;;;18.10;52.09;98334.88;68456;1280;1015857;-69
2024/03/02 15:21:24;;;;;;;;;;;;;;;18.04;52.15;98333.50;68448;1280;1015783;-70
2024/03/02 15:24:26;;;;;;;;;;;;;;;17.88;52.64;98330.30;68448;1280;1016284;-70
2024/03/02 15:27:29;;;;;;;;;;;;;;;17.88;52.57;98329.54;68444;1280;1016211;-70
2024/03/02 15:30:32;;;;;;;;;;;;;;;17.82;52.59;98336.70;68429;1279;1016052;-69
2024/03/02 15:33:35;;;;;;;;;;;;;;;17.73;52.60;98336.17;68431;1280;1015989;-70